Time;durP1;ratioP1;P1;durP2;ratioP2;P2;SDS_P1;SDS_P2;PMS_P1;PMS_P2;Temp;Humidity;BMP_temperature;BMP_pressure;BME280_temperature;BME280_humidity;BME280_pressure;Samples;Min_cycle;Max_cycle;Signal;HPM_P1;HPM_P2
2022/01/05 00:01:26;;;;;;;11.30;2.72;;;4.80;99.90;;;;;;5075294;28;20400;-86
2022/01/05 00:03:52;;;;;;;8.98;2.30;;;7.50;99.90;;;;;;5059395;28;20055;-86
2022/01/05 00:06:18;;;;;;;15.85;2.72;;;8.30;99.90;;;;;;5058452;28;20040;-86
2022/01/05 00:08:43;;;;;;;16.13;2.40;;;6.70;99.90;;;;;;5074923;28;20410;-85
2022/01/05 00:11:10;;;;;;;13.02;2.40;;;6.60;99.90;;;;;;5075304;28;20093;-86
2022/01/05 00:13:36;;;;;;;11.27;2.78;;;8.40;99.90;;;;;;5058278;28;20123;-86
2022/01/05 00:16:02;;;;;;;12.25;2.42;;;8.80;99.90;;;;;;5073972;28;20205;-85
2022/01/05 00:18:28;;;;;;;22.55;3.75;;;6.50;99.90;;;;;;5058798;28;20104;-86
2022/01/05 00:20:54;;;;;;;23.10;2.70;;;8.40;99.90;;;;;;5058219;28;20131;-86
2022/01/05 00:23:19;;;;;;;11.48;2.70;;;8.60;99.90;;;;;;5074737;28;20403;-87
2022/01/05 00:25:45;;;;;;;14.57;2.80;;;6.40;99.90;;;;;;5057839;28;20046;-86
2022/01/05 00:28:11;;;;;;;17.67;2.85;;;6.40;99.90;;;;;;5058118;28;20036;-86
2022/01/05 00:30:36;;;;;;;13.35;2.80;;;8.70;99.90;;;;;;5058267;28;20047;-86
2022/01/05 00:33:02;;;;;;;18.02;3.25;;;7.60;99.90;;;;;;5058470;28;20108;-86
2022/01/05 00:35:28;;;;;;;12.38;2.20;;;7.50;99.90;;;;;;5057964;28;20543;-86
2022/01/05 00:37:53;;;;;;;18.17;3.38;;;6.20;99.90;;;;;;5074857;28;20044;-85
2022/01/05 00:40:19;;;;;;;12.38;2.22;;;8.40;99.90;;;;;;5057898;28;20127;-86
2022/01/05 00:42:45;;;;;;;13.70;2.17;;;8.20;99.90;;;;;;5058394;28;20066;-86
2022/01/05 00:45:11;;;;;;;14.95;2.50;;;8.70;99.90;;;;;;5058309;28;20884;-86
2022/01/05 00:47:36;;;;;;;15.75;2.88;;;8.20;99.90;;;;;;5058064;28;20082;-86
2022/01/05 00:50:02;;;;;;;21.95;3.20;;;8.90;99.90;;;;;;5075099;28;20048;-86
2022/01/05 00:52:28;;;;;;;15.10;2.95;;;6.40;99.90;;;;;;5074952;28;20052;-86
2022/01/05 00:54:53;;;;;;;13.50;2.55;;;8.70;99.90;;;;;;5074438;28;20395;-86
2022/01/05 00:57:19;;;;;;;11.05;2.70;;;8.20;99.90;;;;;;5093441;28;20105;-86
2022/01/05 00:59:45;;;;;;;16.98;3.25;;;8.40;99.90;;;;;;5075626;28;20055;-86
2022/01/05 01:02:10;;;;;;;20.88;3.75;;;7.10;99.90;;;;;;5057997;28;20048;-86
2022/01/05 01:04:36;;;;;;;19.27;3.55;;;7.20;99.90;;;;;;5075306;28;20048;-86
2022/01/05 01:07:02;;;;;;;13.52;3.17;;;8.30;99.90;;;;;;5074678;28;20036;-86
2022/01/05 01:09:28;;;;;;;20.08;3.50;;;6.50;99.90;;;;;;5074206;28;20140;-86
2022/01/05 01:11:53;;;;;;;18.20;5.38;;;6.50;99.90;;;;;;5074520;28;20056;-86
2022/01/05 01:14:19;;;;;;;20.15;3.83;;;8.60;99.90;;;;;;5074353;28;20046;-86
2022/01/05 01:16:45;;;;;;;17.80;3.53;;;8.20;99.90;;;;;;5074882;28;20080;-86
2022/01/05 01:19:11;;;;;;;18.73;2.53;;;7.20;99.90;;;;;;5093020;28;20108;-86
2022/01/05 01:21:37;;;;;;;15.90;2.97;;;8.80;99.90;;;;;;5074432;28;20048;-86
2022/01/05 01:24:04;;;;;;;15.43;3.00;;;8.10;99.90;;;;;;5074649;28;20055;-87
2022/01/05 01:26:34;;;;;;;19.58;3.08;;;6.50;99.90;;;;;;5075487;28;20052;-87
2022/01/05 01:29:00;;;;;;;17.10;2.33;;;8.90;99.90;;;;;;5061452;28;20048;-86
2022/01/05 01:31:26;;;;;;;18.58;3.20;;;7.40;99.90;;;;;;5077927;28;20040;-87
2022/01/05 01:33:52;;;;;;;16.42;3.05;;;8.30;99.90;;;;;;5077474;28;20385;-87
2022/01/05 01:36:18;;;;;;;14.45;3.08;;;8.00;99.90;;;;;;5078139;28;20072;-87
2022/01/05 01:38:44;;;;;;;24.17;4.47;;;8.50;99.90;;;;;;5077999;28;20071;-86
2022/01/05 01:41:11;;;;;;;20.52;3.20;;;8.40;99.90;;;;;;5078095;28;20074;-86
2022/01/05 01:43:37;;;;;;;16.90;3.05;;;6.10;99.90;;;;;;5077936;28;20055;-86
2022/01/05 01:46:04;;;;;;;17.70;3.45;;;7.20;99.90;;;;;;5077864;28;20048;-86
2022/01/05 01:48:30;;;;;;;19.38;3.00;;;8.50;99.90;;;;;;5078030;28;20051;-86
2022/01/05 01:50:56;;;;;;;16.48;3.30;;;8.30;99.90;;;;;;5078393;28;20051;-86
2022/01/05 01:53:22;;;;;;;16.42;3.00;;;7.40;99.90;;;;;;5077742;28;20067;-86
2022/01/05 01:55:49;;;;;;;18.60;3.05;;;8.80;99.90;;;;;;5077588;28;20048;-86
2022/01/05 01:58:18;;;;;;;19.40;3.25;;;8.90;99.90;;;;;;5061133;28;20399;-86
2022/01/05 02:00:44;;;;;;;19.73;3.28;;;7.10;99.90;;;;;;5061203;28;20040;-86
2022/01/05 02:03:12;;;;;;;16.50;3.13;;;6.70;99.90;;;;;;5061121;28;20449;-86
2022/01/05 02:05:38;;;;;;;16.73;3.00;;;7.80;99.90;;;;;;5077553;28;20052;-86
2022/01/05 02:08:04;;;;;;;11.43;2.75;;;6.90;99.90;;;;;;5060280;28;20051;-86
2022/01/05 02:10:30;;;;;;;10.68;2.13;;;6.80;99.90;;;;;;5077287;28;20052;-86
2022/01/05 02:12:56;;;;;;;13.00;2.90;;;6.60;99.90;;;;;;5077580;28;20164;-86
2022/01/05 02:15:22;;;;;;;15.75;2.67;;;8.30;99.90;;;;;;5060771;28;20040;-86
2022/01/05 02:18:07;;;;;;;21.25;2.60;;;8.80;99.90;;;;;;5060676;28;20523;-86
2022/01/05 02:20:33;;;;;;;22.00;2.83;;;8.90;99.90;;;;;;5060597;28;20052;-86
2022/01/05 02:22:59;;;;;;;20.67;3.50;;;7.70;99.90;;;;;;5077239;28;20052;-86
2022/01/05 02:25:26;;;;;;;10.20;2.50;;;8.30;99.90;;;;;;5077217;28;20048;-86
2022/01/05 02:27:54;;;;;;;9.25;2.15;;;8.60;99.90;;;;;;5077028;28;20051;-86
2022/01/05 02:30:24;;;;;;;14.27;2.58;;;6.50;99.90;;;;;;5060376;28;20052;-86
2022/01/05 02:32:50;;;;;;;9.10;2.42;;;7.10;99.90;;;;;;5060370;28;20069;-86
2022/01/05 02:35:16;;;;;;;15.40;2.95;;;6.40;99.90;;;;;;5060564;28;20040;-86
2022/01/05 02:37:45;;;;;;;16.75;2.47;;;7.30;99.90;;;;;;5060096;28;20200;-86
2022/01/05 02:40:13;;;;;;;14.13;2.67;;;8.00;99.90;;;;;;5058869;28;20047;-87
2022/01/05 02:42:39;;;;;;;23.55;3.33;;;6.40;99.90;;;;;;5060221;28;20044;-86
2022/01/05 02:45:05;;;;;;;17.25;3.28;;;5.90;99.90;;;;;;5059975;28;20040;-86
2022/01/05 02:47:31;;;;;;;8.98;2.47;;;6.50;99.90;;;;;;5060250;28;20395;-86
2022/01/05 02:49:59;;;;;;;11.63;2.20;;;8.60;99.90;;;;;;5060271;28;20063;-86
2022/01/05 02:52:24;;;;;;;30.02;3.88;;;6.30;99.90;;;;;;5076873;28;20109;-86
2022/01/05 02:54:50;;;;;;;10.60;2.25;;;9.10;99.90;;;;;;5059909;28;20044;-87
2022/01/05 02:57:16;;;;;;;10.82;2.45;;;7.50;99.90;;;;;;5076949;28;20079;-86
2022/01/05 02:59:42;;;;;;;15.60;3.22;;;8.80;99.90;;;;;;5059508;28;20044;-86
2022/01/05 03:02:07;;;;;;;12.25;2.30;;;8.60;99.90;;;;;;5059967;28;20055;-86
2022/01/05 03:04:33;;;;;;;11.57;1.92;;;8.70;99.90;;;;;;5059629;28;20043;-86
2022/01/05 03:06:59;;;;;;;15.10;2.15;;;8.00;99.90;;;;;;5059832;28;20368;-86
2022/01/05 03:09:25;;;;;;;17.27;2.83;;;5.90;99.90;;;;;;5058009;28;20059;-86
2022/01/05 03:11:52;;;;;;;14.95;2.42;;;6.30;99.90;;;;;;5076677;28;20075;-86
2022/01/05 03:14:17;;;;;;;12.02;2.50;;;7.90;99.90;;;;;;5059669;28;20119;-86
2022/01/05 03:16:43;;;;;;;13.82;2.22;;;8.30;99.90;;;;;;5059467;28;20123;-87
2022/01/05 03:19:09;;;;;;;16.90;2.42;;;8.40;99.90;;;;;;5060424;28;20054;-86
2022/01/05 03:21:34;;;;;;;10.50;2.25;;;8.00;99.90;;;;;;5076154;28;20040;-87
2022/01/05 03:24:01;;;;;;;19.73;2.70;;;6.50;99.90;;;;;;5059692;28;20055;-86
2022/01/05 03:26:26;;;;;;;12.63;3.15;;;6.20;99.90;;;;;;5076247;28;20365;-86
2022/01/05 03:28:52;;;;;;;18.58;2.90;;;8.20;99.90;;;;;;5076004;28;20051;-87
2022/01/05 03:31:18;;;;;;;19.52;2.80;;;8.00;99.90;;;;;;5075889;28;20186;-86
2022/01/05 03:33:44;;;;;;;18.70;2.95;;;8.40;99.90;;;;;;5075779;28;20119;-87
2022/01/05 03:36:09;;;;;;;21.77;3.40;;;6.60;99.90;;;;;;5075832;28;20093;-87
2022/01/05 03:38:35;;;;;;;25.42;4.20;;;8.60;99.90;;;;;;5059077;28;20098;-86
2022/01/05 03:41:01;;;;;;;23.55;3.22;;;8.40;99.90;;;;;;5075596;28;20044;-86
2022/01/05 03:43:27;;;;;;;20.98;3.17;;;8.60;99.90;;;;;;5058816;28;20052;-86
2022/01/05 03:45:52;;;;;;;29.13;3.55;;;9.00;99.90;;;;;;5059023;28;20040;-86
2022/01/05 03:48:19;;;;;;;18.52;3.25;;;7.30;99.90;;;;;;5093247;28;20040;-86
2022/01/05 03:50:45;;;;;;;20.48;3.60;;;8.70;99.90;;;;;;5058647;28;20051;-87
2022/01/05 03:53:11;;;;;;;18.27;3.30;;;9.10;99.90;;;;;;5059052;28;20055;-87
2022/01/05 03:55:40;;;;;;;27.42;3.88;;;8.20;99.90;;;;;;5058976;28;20083;-86
2022/01/05 03:58:06;;;;;;;16.33;3.10;;;6.30;99.90;;;;;;5075711;28;20108;-86
2022/01/05 04:00:39;;;;;;;9.75;2.05;;;8.20;99.90;;;;;;5058884;28;20067;-86
2022/01/05 04:03:05;;;;;;;14.80;2.70;;;9.10;99.90;;;;;;5075113;28;20044;-86
2022/01/05 04:05:31;;;;;;;18.90;2.60;;;8.60;99.90;;;;;;5075364;28;20055;-86
2022/01/05 04:07:57;;;;;;;11.07;2.53;;;7.00;99.90;;;;;;5058763;28;20193;-86
2022/01/05 04:10:23;;;;;;;20.67;3.53;;;7.80;99.90;;;;;;5058040;28;20052;-86
2022/01/05 04:12:49;;;;;;;18.27;3.15;;;8.80;99.90;;;;;;5075122;28;20055;-86
2022/01/05 04:15:16;;;;;;;22.83;3.22;;;8.50;99.90;;;;;;5074895;28;20044;-86
2022/01/05 04:17:41;;;;;;;58.15;4.50;;;8.30;99.90;;;;;;5058650;28;20078;-86
2022/01/05 04:20:08;;;;;;;28.83;3.95;;;7.10;99.90;;;;;;5075030;28;20052;-86
2022/01/05 04:22:33;;;;;;;32.60;4.15;;;6.50;99.90;;;;;;5075172;28;20101;-86
2022/01/05 04:24:59;;;;;;;32.22;3.72;;;8.80;99.90;;;;;;5058253;28;20047;-86
2022/01/05 04:27:25;;;;;;;19.48;3.58;;;5.50;99.90;;;;;;5059234;28;20040;-86
2022/01/05 04:29:50;;;;;;;18.30;3.35;;;6.80;99.90;;;;;;5058332;28;20043;-86
2022/01/05 04:32:16;;;;;;;18.92;3.40;;;8.90;99.90;;;;;;5058935;28;20048;-86
2022/01/05 04:34:42;;;;;;;14.93;2.83;;;7.80;99.90;;;;;;5075152;28;20492;-86
2022/01/05 04:37:08;;;;;;;23.38;3.25;;;8.40;99.90;;;;;;5074846;28;20119;-86
2022/01/05 04:39:35;;;;;;;14.32;2.72;;;7.20;99.90;;;;;;5057996;28;20040;-86
2022/01/05 04:42:00;;;;;;;12.02;2.50;;;8.70;99.90;;;;;;5075181;28;20189;-87
2022/01/05 04:44:26;;;;;;;19.88;3.13;;;8.80;99.90;;;;;;5075538;28;20531;-87
2022/01/05 04:46:52;;;;;;;17.02;3.72;;;9.00;99.90;;;;;;5074489;28;20118;-87
2022/01/05 04:49:18;;;;;;;15.82;3.35;;;6.80;99.90;;;;;;5074753;28;20115;-87
2022/01/05 04:51:44;;;;;;;22.98;3.65;;;6.90;99.90;;;;;;5075500;28;20047;-86
2022/01/05 04:54:09;;;;;;;18.08;3.15;;;6.60;99.90;;;;;;5074566;28;20056;-86
2022/01/05 04:56:35;;;;;;;18.40;4.40;;;8.90;99.90;;;;;;5073822;28;20036;-86
2022/01/05 04:59:01;;;;;;;20.25;3.10;;;8.60;99.90;;;;;;5074302;28;20036;-86
2022/01/05 05:01:26;;;;;;;28.58;4.57;;;8.60;99.90;;;;;;5074982;28;20079;-87
2022/01/05 05:03:53;;;;;;;16.45;3.30;;;7.80;99.90;;;;;;5078496;28;20055;-87
2022/01/05 05:06:19;;;;;;;20.90;3.92;;;9.00;99.90;;;;;;5062362;28;20070;-86
2022/01/05 05:08:44;;;;;;;22.58;4.70;;;6.80;99.90;;;;;;5078580;28;20056;-86
2022/01/05 05:11:10;;;;;;;22.88;3.45;;;9.20;99.90;;;;;;5078604;28;20381;-86
2022/01/05 05:13:36;;;;;;;35.88;5.50;;;9.10;99.90;;;;;;5061749;28;20188;-87
2022/01/05 05:16:02;;;;;;;26.00;3.78;;;9.10;99.90;;;;;;5078631;28;20036;-87
2022/01/05 05:18:27;;;;;;;32.38;4.82;;;7.20;99.90;;;;;;5078452;28;20100;-87
2022/01/05 05:20:53;;;;;;;18.08;2.95;;;7.10;99.90;;;;;;5079068;28;20040;-87
2022/01/05 05:23:19;;;;;;;22.27;3.05;;;7.80;99.90;;;;;;5079041;28;20167;-89
2022/01/05 05:25:45;;;;;;;14.40;3.50;;;9.10;99.90;;;;;;5061598;28;20051;-89
2022/01/05 05:28:10;;;;;;;19.15;3.20;;;9.50;99.90;;;;;;5061900;28;20369;-87
2022/01/05 05:30:36;;;;;;;15.85;3.25;;;9.70;99.90;;;;;;5078858;28;20046;-88
2022/01/05 05:33:03;;;;;;;18.58;3.08;;;8.70;99.90;;;;;;5078185;28;20043;-88
2022/01/05 05:35:31;;;;;;;15.23;3.15;;;8.20;99.90;;;;;;5061407;28;20040;-88
2022/01/05 05:37:57;;;;;;;21.40;2.95;;;7.20;99.90;;;;;;5078862;28;20047;-88
2022/01/05 05:40:24;;;;;;;16.58;3.22;;;8.50;99.90;;;;;;5078242;28;20036;-87
2022/01/05 05:42:50;;;;;;;31.38;4.22;;;7.40;99.90;;;;;;5061349;28;20043;-88
2022/01/05 05:45:16;;;;;;;9.60;2.35;;;9.60;99.90;;;;;;5061996;28;20052;-88
2022/01/05 05:47:41;;;;;;;19.77;3.38;;;9.00;99.90;;;;;;5077809;28;20131;-88
2022/01/05 05:50:09;;;;;;;17.70;2.97;;;9.10;99.90;;;;;;5061038;28;20476;-88
2022/01/05 05:52:34;;;;;;;15.82;3.80;;;7.00;99.90;;;;;;5061397;28;20036;-87
2022/01/05 05:55:00;;;;;;;19.25;3.22;;;9.00;99.90;;;;;;5061586;28;20749;-87
2022/01/05 05:57:26;;;;;;;13.73;3.20;;;9.00;99.90;;;;;;5061695;28;20514;-88
2022/01/05 05:59:54;;;;;;;13.90;2.47;;;8.90;99.90;;;;;;5061413;28;20039;-88
2022/01/05 06:02:20;;;;;;;16.13;2.92;;;8.70;99.90;;;;;;5061409;28;20051;-88
2022/01/05 06:04:46;;;;;;;13.15;2.60;;;8.70;99.90;;;;;;5060767;28;20400;-88
2022/01/05 06:07:11;;;;;;;12.18;2.30;;;8.90;99.90;;;;;;5077390;28;20047;-88
2022/01/05 06:09:37;;;;;;;10.32;2.22;;;8.40;99.90;;;;;;5060932;28;20052;-88
2022/01/05 06:12:03;;;;;;;15.55;2.78;;;8.80;99.90;;;;;;5077586;28;20104;-88
2022/01/05 06:14:29;;;;;;;12.38;2.38;;;6.60;99.90;;;;;;5078233;28;20044;-88
2022/01/05 06:16:55;;;;;;;22.00;3.70;;;7.30;99.90;;;;;;5061252;28;20052;-88
2022/01/05 06:19:20;;;;;;;27.77;3.70;;;7.70;99.90;;;;;;5077779;28;20120;-88
2022/01/05 06:21:47;;;;;;;18.88;3.00;;;7.90;99.90;;;;;;5060961;28;20066;-87
2022/01/05 06:24:13;;;;;;;13.05;2.92;;;9.90;99.90;;;;;;5077530;28;20040;-87
2022/01/05 06:26:39;;;;;;;13.45;3.05;;;8.40;99.90;;;;;;5077745;28;20047;-88
2022/01/05 06:29:05;;;;;;;13.55;2.90;;;9.70;99.90;;;;;;5077701;28;20040;-88
2022/01/05 06:31:30;;;;;;;16.95;2.55;;;9.80;99.90;;;;;;5077582;28;20076;-87
2022/01/05 06:33:56;;;;;;;19.40;3.22;;;7.50;99.90;;;;;;5076715;28;20060;-87
2022/01/05 06:36:22;;;;;;;16.40;2.92;;;9.30;99.90;;;;;;5077405;28;20068;-87
2022/01/05 06:38:48;;;;;;;19.25;3.35;;;8.90;99.90;;;;;;5077252;28;20130;-88
2022/01/05 06:41:13;;;;;;;19.48;3.35;;;9.90;99.90;;;;;;5077248;28;20480;-88
2022/01/05 06:43:39;;;;;;;9.82;2.22;;;7.80;99.90;;;;;;5076970;28;20123;-88
2022/01/05 06:46:05;;;;;;;13.18;2.65;;;9.20;99.90;;;;;;5060322;28;20209;-87
2022/01/05 06:48:31;;;;;;;8.32;2.05;;;9.00;99.90;;;;;;5077580;28;20055;-87
2022/01/05 06:50:56;;;;;;;14.02;2.10;;;8.20;99.90;;;;;;5060218;28;20484;-88
2022/01/05 06:53:22;;;;;;;16.48;2.95;;;9.70;99.90;;;;;;5076851;28;20048;-87
2022/01/05 06:55:48;;;;;;;15.32;3.03;;;8.90;99.90;;;;;;5077520;28;20047;-87
2022/01/05 06:58:13;;;;;;;20.60;3.88;;;8.90;99.90;;;;;;5060156;28;20072;-87
2022/01/05 07:03:30;;;;;;;28.35;4.40;;;9.00;99.90;;;;;;5077495;28;20052;-87
2022/01/05 07:05:56;;;;;;;18.85;3.42;;;9.80;99.90;;;;;;5076995;28;20496;-86
2022/01/05 07:08:22;;;;;;;21.27;3.75;;;8.20;99.90;;;;;;5060187;28;20044;-87
2022/01/05 07:10:48;;;;;;;37.20;4.68;;;8.20;99.90;;;;;;5076626;28;20063;-86
2022/01/05 07:13:14;;;;;;;28.17;4.57;;;8.50;99.90;;;;;;5077557;28;20056;-88
2022/01/05 07:15:40;;;;;;;21.80;4.38;;;8.80;99.90;;;;;;5060628;28;20055;-89
2022/01/05 07:18:06;;;;;;;20.88;4.00;;;8.00;99.90;;;;;;5076272;28;20052;-87
2022/01/05 07:20:32;;;;;;;15.20;3.67;;;;;;;;;;5076744;28;20155;-88
2022/01/05 07:22:58;;;;;;;14.90;3.55;;;8.20;99.90;;;;;;5077236;28;20044;-87
2022/01/05 07:25:24;;;;;;;11.32;3.20;;;8.40;99.90;;;;;;5075714;28;20048;-86
2022/01/05 07:27:50;;;;;;;18.70;3.70;;;8.70;99.90;;;;;;5059375;28;20043;-86
2022/01/05 07:30:18;;;;;;;19.45;3.40;;;8.90;99.90;;;;;;5076062;28;20048;-86
2022/01/05 07:32:44;;;;;;;23.08;4.25;;;7.90;99.90;;;;;;5059933;28;20509;-87
2022/01/05 07:35:10;;;;;;;24.85;4.47;;;8.00;99.90;;;;;;5059140;28;20101;-87
2022/01/05 07:37:36;;;;;;;16.45;2.92;;;9.90;99.90;;;;;;5059244;28;20052;-87
2022/01/05 07:40:03;;;;;;;8.60;2.30;;;7.50;99.90;;;;;;5059001;28;20156;-88
2022/01/05 07:50:14;;;;;;;11.05;2.33;;;8.10;99.90;;;;;;4972159;28;20042;-90
2022/01/05 07:52:55;;;;;;;14.25;2.50;;;9.00;99.90;;;;;;4957128;28;20133;-91
2022/01/05 07:55:41;;;;;;;14.90;3.40;;;7.80;99.90;;;;;;4940326;28;20403;-94
2022/01/05 07:58:19;;;;;;;8.85;1.92;;;7.40;99.90;;;;;;4957848;28;20057;-92
2022/01/05 08:00:47;;;;;;;5.72;1.48;;;7.20;99.90;;;;;;4985027;28;20056;-91
2022/01/05 08:03:13;;;;;;;21.38;3.92;;;9.30;99.90;;;;;;5075867;28;20090;-89
2022/01/05 08:05:38;;;;;;;20.67;2.70;;;9.20;99.90;;;;;;5058827;28;20036;-88
2022/01/05 08:08:04;;;;;;;19.05;3.25;;;8.00;99.90;;;;;;5058493;28;20462;-88
2022/01/05 08:10:30;;;;;;;19.05;3.20;;;7.50;99.90;;;;;;5058143;28;20060;-87
2022/01/05 08:12:56;;;;;;;17.02;3.38;;;8.30;99.90;;;;;;5058179;28;20054;-91
2022/01/05 08:15:22;;;;;;;26.85;3.22;;;8.10;99.90;;;;;;5058648;28;20413;-91
2022/01/05 08:17:47;;;;;;;19.75;3.80;;;9.10;99.90;;;;;;5058716;28;20097;-90
2022/01/05 08:20:14;;;;;;;29.50;4.47;;;10.60;99.90;;;;;;5057964;28;20043;-89
2022/01/05 08:22:46;;;;;;;27.80;5.03;;;8.70;99.90;;;;;;5074070;28;20040;-89
2022/01/05 08:25:15;;;;;;;18.98;3.38;;;8.70;99.90;;;;;;5058182;28;20051;-89
2022/01/05 08:27:46;;;;;;;19.60;4.50;;;8.60;99.90;;;;;;5057802;28;20040;-89
2022/01/05 08:30:17;;;;;;;19.83;3.30;;;8.40;99.90;;;;;;5057810;28;20044;-90
2022/01/05 08:32:46;;;;;;;17.65;3.40;;;8.30;99.90;;;;;;5074593;28;20040;-89
2022/01/05 08:35:13;;;;;;;17.33;3.25;;;9.90;99.90;;;;;;5058297;28;20052;-89
2022/01/05 08:37:44;;;;;;;22.73;3.60;;;9.30;99.90;;;;;;5057573;28;20161;-89
2022/01/05 08:40:11;;;;;;;30.95;5.93;;;8.80;99.90;;;;;;5074750;28;20684;-88
2022/01/05 08:42:37;;;;;;;29.23;6.05;;;8.00;99.90;;;;;;5074527;28;20076;-88
2022/01/05 08:45:07;;;;;;;23.80;3.92;;;9.00;99.90;;;;;;5074654;28;20090;-88
2022/01/05 08:47:33;;;;;;;14.90;3.13;;;8.30;99.90;;;;;;5057653;28;20101;-88
2022/01/05 08:49:59;;;;;;;23.42;3.72;;;8.30;99.90;;;;;;5057686;28;20040;-88
2022/01/05 08:52:25;;;;;;;11.27;2.97;;;10.70;99.90;;;;;;5057860;28;20104;-88
2022/01/05 08:54:51;;;;;;;9.77;2.83;;;9.30;99.90;;;;;;5075081;28;20044;-88
2022/01/05 08:57:17;;;;;;;8.48;2.22;;;9.40;99.90;;;;;;5074627;28;20560;-88
2022/01/05 08:59:44;;;;;;;14.82;3.05;;;8.10;99.90;;;;;;5058564;28;20043;-88
2022/01/05 09:02:15;;;;;;;21.38;3.60;;;8.10;99.90;;;;;;5075190;28;20040;-88
2022/01/05 09:04:41;;;;;;;15.88;3.65;;;10.20;99.90;;;;;;5075093;28;20404;-88
2022/01/05 09:07:07;;;;;;;14.18;3.58;;;7.80;99.90;;;;;;5074499;28;20097;-87
2022/01/05 09:09:33;;;;;;;14.20;3.80;;;8.00;99.90;;;;;;5057812;28;20437;-88
2022/01/05 09:11:58;;;;;;;28.25;5.18;;;8.20;99.90;;;;;;5058086;28;20134;-88
2022/01/05 09:14:24;;;;;;;40.42;6.38;;;8.70;99.90;;;;;;5057818;28;20412;-87
2022/01/05 09:16:51;;;;;;;18.10;3.20;;;8.80;99.90;;;;;;5057998;28;20043;-88
2022/01/05 09:19:16;;;;;;;20.33;3.63;;;10.60;99.90;;;;;;5074510;28;20055;-87
2022/01/05 09:21:42;;;;;;;16.88;3.72;;;8.10;99.90;;;;;;5057837;28;20048;-88
2022/01/05 09:24:08;;;;;;;27.88;3.22;;;8.40;99.90;;;;;;5074817;28;20127;-90
2022/01/05 09:26:52;;;;;;;22.65;3.58;;;8.20;99.90;;;;;;5062277;28;20036;-96
2022/01/05 09:29:18;;;;;;;28.25;3.63;;;8.20;99.90;;;;;;5077183;28;20044;-94
2022/01/05 09:31:45;;;;;;;16.40;3.78;;;8.50;99.90;;;;;;5062462;28;20485;-88
2022/01/05 09:34:10;;;;;;;20.88;3.35;;;8.00;99.90;;;;;;5057882;28;20087;-89
2022/01/05 09:36:44;;;;;;;13.63;3.13;;;8.40;99.90;;;;;;5057935;28;20048;-93
2022/01/05 09:42:00;;;;;;;16.60;3.83;;;10.40;99.90;;;;;;5113111;28;20376;-90
2022/01/05 09:44:31;;;;;;;13.93;3.13;;;8.40;99.90;;;;;;5094788;28;20395;-87
2022/01/05 09:46:59;;;;;;;15.07;3.03;;;8.50;99.90;;;;;;5078065;28;20043;-87
2022/01/05 09:49:33;;;;;;;17.88;3.70;;;11.20;99.90;;;;;;5080772;28;20044;-86
2022/01/05 09:52:07;;;;;;;20.55;3.50;;;9.00;99.90;;;;;;5081359;28;20086;-85
2022/01/05 09:54:35;;;;;;;24.80;3.45;;;8.90;99.90;;;;;;5072943;28;20090;-84
2022/01/05 09:57:01;;;;;;;18.23;3.65;;;8.80;99.90;;;;;;5061166;28;20050;-85
2022/01/05 09:59:29;;;;;;;20.08;3.58;;;8.60;99.90;;;;;;5077507;28;20094;-88
2022/01/05 10:01:57;;;;;;;19.13;3.67;;;9.00;99.90;;;;;;5061299;28;20098;-87
2022/01/05 10:04:24;;;;;;;29.65;5.55;;;8.50;99.90;;;;;;5077339;28;20048;-88
2022/01/05 10:06:50;;;;;;;10.13;2.10;;;8.60;99.90;;;;;;5060938;28;20047;-88
2022/01/05 10:09:16;;;;;;;16.88;3.35;;;8.90;99.90;;;;;;5077039;28;20043;-87
2022/01/05 10:11:42;;;;;;;13.43;2.65;;;8.40;99.90;;;;;;5076616;28;20416;-83
2022/01/05 10:14:11;;;;;;;9.77;2.25;;;8.40;99.90;;;;;;5076571;28;20047;-85
2022/01/05 10:16:38;;;;;;;7.13;2.28;;;8.10;99.90;;;;;;5059457;28;20044;-83
2022/01/05 10:19:05;;;;;;;8.02;1.98;;;8.10;99.90;;;;;;5077035;28;20128;-84
2022/01/05 10:21:36;;;;;;;15.00;2.47;;;8.30;99.90;;;;;;5060233;28;20048;-84
2022/01/05 10:24:03;;;;;;;7.70;2.05;;;8.20;99.90;;;;;;5060326;28;20044;-85
2022/01/05 10:26:33;;;;;;;10.57;2.22;;;8.20;99.90;;;;;;5076598;28;20050;-85
2022/01/05 10:29:02;;;;;;;9.35;2.30;;;8.80;99.90;;;;;;5060414;28;20044;-88
2022/01/05 10:31:31;;;;;;;13.98;3.08;;;8.90;99.90;;;;;;5060044;28;20040;-86
2022/01/05 10:34:16;;;;;;;15.20;2.70;;;8.00;99.90;;;;;;5060689;28;20405;-87
2022/01/05 10:36:45;;;;;;;10.80;2.20;;;8.90;99.90;;;;;;5059181;28;20039;-88
2022/01/05 10:39:14;;;;;;;25.15;3.35;;;9.10;99.90;;;;;;5059479;28;20563;-89
2022/01/05 10:41:40;;;;;;;9.85;2.75;;;10.80;99.90;;;;;;5059867;28;20042;-89
2022/01/05 10:44:09;;;;;;;18.55;3.45;;;10.10;99.90;;;;;;5060346;28;20036;-88
2022/01/05 10:46:37;;;;;;;16.60;3.50;;;8.60;99.90;;;;;;5059770;28;20036;-85
2022/01/05 10:49:04;;;;;;;15.13;3.28;;;8.80;99.90;;;;;;5059872;28;20554;-86
2022/01/05 10:51:32;;;;;;;21.95;4.72;;;9.00;99.90;;;;;;5075908;28;20044;-86
2022/01/05 10:54:16;;;;;;;23.65;4.32;;;8.80;99.90;;;;;;5059433;28;20036;-86
2022/01/05 10:56:42;;;;;;;19.88;3.58;;;9.00;99.90;;;;;;5059667;28;20075;-90
2022/01/05 10:59:09;;;;;;;11.55;2.72;;;9.00;99.90;;;;;;5059357;28;20051;-87
2022/01/05 11:01:36;;;;;;;10.65;2.92;;;9.00;99.90;;;;;;5094738;28;20071;-87
2022/01/05 11:04:17;;;;;;;6.82;2.97;;;10.80;99.90;;;;;;5059712;28;20404;-86
2022/01/05 11:06:55;;;;;;;9.07;2.72;;;8.90;99.90;;;;;;5060135;28;20451;-89
2022/01/05 11:09:21;;;;;;;7.90;2.38;;;8.80;99.90;;;;;;5059085;28;20036;-89
2022/01/05 11:11:49;;;;;;;13.50;3.28;;;10.80;99.90;;;;;;5074561;28;20064;-85
2022/01/05 11:14:19;;;;;;;19.80;3.75;;;8.50;99.90;;;;;;5072872;28;20131;-85
2022/01/05 11:16:48;;;;;;;16.52;2.60;;;8.40;99.90;;;;;;5065992;28;20040;-84
2022/01/05 11:19:21;;;;;;;4.55;1.55;;;10.20;99.90;;;;;;5075853;28;20036;-88
2022/01/05 11:22:06;;;;;;;10.35;1.80;;;10.30;99.90;;;;;;5058511;28;20050;-88
2022/01/05 11:24:33;;;;;;;5.32;1.50;;;8.40;99.90;;;;;;5074184;28;20054;-88
2022/01/05 11:26:59;;;;;;;8.77;1.85;;;8.20;99.90;;;;;;5057736;28;20048;-89
2022/01/05 11:29:25;;;;;;;10.52;2.38;;;8.50;99.90;;;;;;5074609;28;20080;-87
2022/01/05 11:31:51;;;;;;;6.80;1.98;;;10.90;99.90;;;;;;5058020;28;20396;-88
2022/01/05 11:34:18;;;;;;;17.58;2.42;;;7.60;99.90;;;;;;5073971;28;20059;-89
2022/01/05 11:36:44;;;;;;;15.88;2.58;;;9.40;99.90;;;;;;5057730;28;20515;-88
2022/01/05 11:39:09;;;;;;;15.38;2.20;;;8.50;99.90;;;;;;5057693;28;20046;-89
2022/01/05 11:41:40;;;;;;;12.20;2.17;;;8.70;99.90;;;;;;5057157;28;20040;-88
2022/01/05 11:44:06;;;;;;;12.57;2.97;;;8.90;99.90;;;;;;5057190;28;20047;-88
2022/01/05 11:46:32;;;;;;;18.02;3.38;;;8.80;99.90;;;;;;5057237;28;20044;-88
2022/01/05 11:49:05;;;;;;;18.60;2.40;;;11.00;99.90;;;;;;5074502;28;20404;-90
2022/01/05 11:51:41;;;;;;;12.18;2.33;;;11.20;99.90;;;;;;5072807;28;20048;-86
2022/01/05 11:54:30;;;;;;;16.30;3.33;;;9.50;99.90;;;;;;5064531;28;20040;-87
2022/01/05 11:57:07;;;;;;;17.35;2.75;;;8.80;99.90;;;;;;5092285;28;20075;-86
2022/01/05 11:59:36;;;;;;;12.80;2.03;;;8.80;99.90;;;;;;5095221;28;20047;-85
2022/01/05 12:02:05;;;;;;;8.77;1.92;;;8.10;99.90;;;;;;5077957;28;20097;-87
2022/01/05 12:04:51;;;;;;;15.20;2.72;;;7.90;99.90;;;;;;5058506;28;20040;-88
2022/01/05 12:07:33;;;;;;;;;;;9.50;99.90;;;;;;5058865;28;20628;-86
2022/01/05 12:09:59;;;;;;;10.02;2.17;;;8.30;99.90;;;;;;5058512;28;20012;-86
2022/01/05 12:12:30;;;;;;;14.73;2.72;;;8.40;99.90;;;;;;5057832;28;20052;-85
2022/01/05 12:14:56;;;;;;;11.80;2.22;;;9.70;99.90;;;;;;5075222;28;20131;-88
2022/01/05 12:17:23;;;;;;;12.07;2.80;;;8.40;99.90;;;;;;5058413;28;20451;-87
2022/01/05 12:19:49;;;;;;;22.95;3.05;;;10.70;99.90;;;;;;5058488;28;20040;-87
2022/01/05 12:22:16;;;;;;;23.35;3.38;;;10.20;99.90;;;;;;5058824;28;20105;-89
2022/01/05 12:24:54;;;;;;;20.00;2.92;;;9.10;99.90;;;;;;5058114;28;20381;-84
2022/01/05 12:27:22;;;;;;;27.08;4.53;;;8.70;99.90;;;;;;5073306;28;20040;-89
2022/01/05 12:29:48;;;;;;;16.67;3.35;;;9.00;99.90;;;;;;5075117;28;20126;-87
2022/01/05 12:32:35;;;;;;;30.63;3.40;;;8.70;99.90;;;;;;5058848;28;20404;-93
2022/01/05 12:35:04;;;;;;;;;;;10.80;99.90;;;;;;5059554;28;20101;-89
2022/01/05 12:37:45;;;;;;;17.45;3.30;;;8.80;99.90;;;;;;5058051;28;20366;-88
2022/01/05 12:40:35;;;;;;;13.13;2.83;;;8.30;99.90;;;;;;5057980;28;20040;-89
2022/01/05 12:43:08;;;;;;;10.02;2.45;;;8.40;99.90;;;;;;5058332;28;20052;-90
2022/01/05 12:45:43;;;;;;;21.00;3.50;;;9.90;99.90;;;;;;5058454;28;20360;-89
2022/01/05 12:48:31;;;;;;;13.60;3.38;;;8.50;99.90;;;;;;5057731;28;20097;-89
2022/01/05 12:51:16;;;;;;;22.88;3.70;;;9.00;99.90;;;;;;5074621;28;20044;-90
2022/01/05 12:54:01;;;;;;;24.17;4.57;;;8.60;99.90;;;;;;5057243;28;20044;-89
2022/01/05 12:56:33;;;;;;;19.60;3.70;;;8.80;99.90;;;;;;5057474;28;20480;-90
2022/01/05 12:59:00;;;;;;;27.15;3.40;;;9.30;99.90;;;;;;5059478;28;20044;-88
2022/01/05 13:01:29;;;;;;;22.70;4.60;;;9.40;99.90;;;;;;5057872;28;20052;-89
2022/01/05 13:03:59;;;;;;;11.90;3.28;;;9.50;99.90;;;;;;5058094;28;20139;-90